»·PEaware :: N350KT KF70-KFLG

N350KT :: KF70-KFLG

FLIGHT INFORMATION

Flight Status: Arrived
Operator: Privately registered:
United States
More flights under this callsign
Pilot: Aundrey S. (17120)
Aircraft: ECLIPSE 500
(EA50)
More flights by this aircraft type
Origin: KF70
Destination: KFLG Flagstaff Pulliam
United States
More flights between these airports :: More routes between these airports
Route: +V64 TRM PKE FLG
File this flight plan on PilotEdge
Remarks:
Altitude:
(Current/Filed)
29,000ft
Speed:
(Current/Filed)
420kts
Departed: 28-Jun-18 12:44 PM
Arrived: 28-Jun-18 02:07 PM
Distance/Time
Traveled:
Not Available
Distance/Time
To Go:
Arrived

Flight Plot

Page will automatically refresh every two minutes.


Map Options




Map Legend


Flown Route
Filed Route
Departure Airport
Arrival Airport
Navaid (VOR, NDB)
Fix

Horizontal Profiles

Position Reports

Time Latitude Longitude Heading Altitude Ground
Speed
28-Jun-18 12:10 33.574654 -117.129470 194 1353ft 0kts
28-Jun-18 12:11 33.574654 -117.129470 194 1353ft 0kts
28-Jun-18 12:12 33.574654 -117.129470 194 1353ft 0kts
28-Jun-18 12:13 33.574654 -117.129470 194 1353ft 0kts
28-Jun-18 12:14 33.574654 -117.129470 194 1353ft 0kts
28-Jun-18 12:15 33.574654 -117.129470 194 1353ft 0kts
28-Jun-18 12:16 33.574654 -117.129470 194 1353ft 0kts
28-Jun-18 12:17 33.574654 -117.129470 194 1353ft 0kts
28-Jun-18 12:18 33.574654 -117.129470 194 1353ft 0kts
28-Jun-18 12:19 33.574654 -117.129470 194 1353ft 0kts
28-Jun-18 12:20 33.574654 -117.129470 194 1353ft 0kts
28-Jun-18 12:21 33.574654 -117.129470 194 1353ft 0kts
28-Jun-18 12:22 33.574654 -117.129470 194 1353ft 0kts
28-Jun-18 12:23 33.574654 -117.129470 194 1353ft 0kts
28-Jun-18 12:24 33.574654 -117.129470 194 1353ft 0kts
28-Jun-18 12:25 33.574654 -117.129470 194 1353ft 0kts
28-Jun-18 12:26 33.574654 -117.129470 194 1353ft 0kts
28-Jun-18 12:27 33.574654 -117.129470 194 1353ft 0kts
28-Jun-18 12:28 33.574654 -117.129470 194 1353ft 0kts
28-Jun-18 12:29 33.574654 -117.129470 194 1353ft 0kts
28-Jun-18 12:30 33.574654 -117.129470 194 1353ft 0kts
28-Jun-18 12:31 33.574654 -117.129470 194 1353ft 0kts
28-Jun-18 12:32 33.574654 -117.129470 194 1353ft 0kts
28-Jun-18 12:33 33.574654 -117.129470 194 1353ft 0kts
28-Jun-18 12:34 33.574654 -117.129470 194 1353ft 0kts
28-Jun-18 12:35 33.574654 -117.129470 194 1353ft 0kts
28-Jun-18 12:36 33.574654 -117.129470 194 1353ft 0kts
28-Jun-18 12:37 33.574654 -117.129470 194 1353ft 0kts
28-Jun-18 12:38 33.574654 -117.129470 194 1353ft 0kts
28-Jun-18 12:39 33.574654 -117.129470 194 1353ft 0kts
28-Jun-18 12:40 33.574776 -117.129164 22 1353ft 6kts
28-Jun-18 12:41 33.577552 -117.128417 11 1353ft 15kts
28-Jun-18 12:42 33.580453 -117.127646 12 1353ft 11kts
28-Jun-18 12:43 33.582274 -117.126829 103 1353ft 5kts
28-Jun-18 12:44 33.570154 -117.129688 196 1457ft 131kts
28-Jun-18 12:45 33.528721 -117.141768 184 3912ft 173kts
28-Jun-18 12:46 33.520583 -117.100806 14 4678ft 178kts
28-Jun-18 12:47 33.573053 -117.085064 14 6740ft 182kts
28-Jun-18 12:48 33.616439 -117.065880 44 9753ft 165kts
28-Jun-18 12:49 33.647168 -117.025307 59 12133ft 168kts
28-Jun-18 12:50 33.653777 -116.970013 91 13955ft 187kts
28-Jun-18 12:51 33.652019 -116.904538 92 13980ft 207kts
28-Jun-18 12:52 33.650026 -116.838812 92 15497ft 185kts
28-Jun-18 12:53 33.648194 -116.778234 91 17577ft 184kts
28-Jun-18 12:54 33.646311 -116.716412 91 19402ft 189kts
28-Jun-18 12:55 33.644343 -116.652664 91 21037ft 199kts
28-Jun-18 12:56 33.642196 -116.584185 91 22147ft 188kts
28-Jun-18 12:57 33.640271 -116.523697 91 23338ft 185kts
28-Jun-18 12:58 33.638179 -116.459022 91 24332ft 204kts
28-Jun-18 12:59 33.635916 -116.390197 91 25236ft 208kts
28-Jun-18 13:00 33.633596 -116.320811 92 26131ft 211kts
28-Jun-18 13:01 33.631179 -116.249668 92 27034ft 215kts
28-Jun-18 13:02 33.628689 -116.177651 92 27935ft 218kts
28-Jun-18 13:03 33.646146 -116.108095 69 28848ft 221kts
28-Jun-18 13:04 33.670056 -116.033156 68 28999ft 264kts
28-Jun-18 13:05 33.698830 -115.944275 68 28997ft 306kts
28-Jun-18 13:06 33.731453 -115.843818 68 28996ft 337kts
28-Jun-18 13:07 33.765930 -115.737495 68 28994ft 343kts
28-Jun-18 13:08 33.800440 -115.630750 68 28994ft 343kts
28-Jun-18 13:09 33.829104 -115.541812 68 28994ft 343kts
28-Jun-18 13:10 33.863432 -115.434966 68 28994ft 343kts
28-Jun-18 13:11 33.897600 -115.328248 69 28994ft 343kts
28-Jun-18 13:12 33.931897 -115.220761 69 28994ft 343kts
28-Jun-18 13:13 33.965901 -115.113807 69 28994ft 343kts
28-Jun-18 13:14 33.999908 -115.006464 69 28994ft 343kts
28-Jun-18 13:15 34.033860 -114.898907 69 28994ft 343kts
28-Jun-18 13:16 34.067668 -114.791429 69 28994ft 343kts
28-Jun-18 13:17 34.101447 -114.684241 66 28992ft 343kts
28-Jun-18 13:18 34.139595 -114.578723 66 28994ft 343kts
28-Jun-18 13:19 34.177763 -114.473287 66 28994ft 343kts
28-Jun-18 13:20 34.215876 -114.367763 66 28994ft 343kts
28-Jun-18 13:21 34.244153 -114.289262 66 28994ft 343kts
28-Jun-18 13:22 34.282190 -114.183371 66 28994ft 343kts
28-Jun-18 13:23 34.320035 -114.077672 66 28994ft 343kts
28-Jun-18 13:24 34.357918 -113.971518 66 28994ft 343kts
28-Jun-18 13:25 34.395628 -113.865498 66 28994ft 343kts
28-Jun-18 13:26 34.433230 -113.759426 66 28994ft 343kts
28-Jun-18 13:27 34.470801 -113.653087 66 28994ft 343kts
28-Jun-18 13:28 34.508076 -113.547232 66 28994ft 343kts
28-Jun-18 13:29 34.545399 -113.440884 66 28898ft 346kts
28-Jun-18 13:30 34.580814 -113.339639 67 27250ft 346kts
28-Jun-18 13:31 34.617997 -113.232992 67 25932ft 341kts
28-Jun-18 13:32 34.654396 -113.128239 67 24630ft 334kts
28-Jun-18 13:33 34.690072 -113.025225 67 23325ft 327kts
28-Jun-18 13:34 34.724788 -112.924656 67 22026ft 320kts
28-Jun-18 13:35 34.758819 -112.825757 67 20722ft 314kts
28-Jun-18 13:36 34.792040 -112.728904 67 19421ft 308kts
28-Jun-18 13:37 34.824523 -112.633912 67 18120ft 301kts
28-Jun-18 13:38 34.856304 -112.540688 67 16818ft 295kts
28-Jun-18 13:39 34.887359 -112.449323 67 15517ft 290kts
28-Jun-18 13:40 34.917683 -112.359935 67 14220ft 284kts
28-Jun-18 13:41 34.947616 -112.271826 67 13334ft 283kts
28-Jun-18 13:42 34.975321 -112.190341 67 12321ft 254kts
28-Jun-18 13:43 35.002046 -112.111797 67 11748ft 250kts
28-Jun-18 13:44 35.001019 -112.029347 100 11747ft 250kts
28-Jun-18 13:45 34.988353 -111.945074 100 11750ft 266kts
28-Jun-18 13:46 34.974468 -111.852463 100 11747ft 285kts
28-Jun-18 13:47 34.960239 -111.757275 100 11747ft 286kts
28-Jun-18 13:48 34.946080 -111.662281 100 11198ft 283kts
28-Jun-18 13:49 34.932627 -111.568543 91 10737ft 281kts
28-Jun-18 13:50 34.983450 -111.502002 38 10747ft 281kts
28-Jun-18 13:51 35.041573 -111.438095 44 10426ft 280kts
28-Jun-18 13:52 35.095617 -111.370780 45 9948ft 273kts
28-Jun-18 13:53 35.139659 -111.313826 47 9939ft 189kts
28-Jun-18 13:54 35.174768 -111.267866 47 9950ft 199kts
28-Jun-18 13:55 35.218274 -111.254218 309 9953ft 197kts
28-Jun-18 13:56 35.250970 -111.304204 308 9947ft 186kts
28-Jun-18 13:57 35.282855 -111.354122 308 9947ft 186kts
28-Jun-18 13:58 35.314469 -111.404203 307 9947ft 186kts
28-Jun-18 13:59 35.316785 -111.456075 230 9941ft 156kts
28-Jun-18 14:00 35.291406 -111.490173 226 9954ft 136kts
28-Jun-18 14:01 35.263848 -111.523883 224 9946ft 138kts
28-Jun-18 14:02 35.236107 -111.557017 224 9216ft 137kts
28-Jun-18 14:03 35.208820 -111.589434 224 8469ft 133kts
28-Jun-18 14:04 35.182135 -111.622039 227 7957ft 127kts
28-Jun-18 14:05 35.160091 -111.648199 221 7352ft 102kts
28-Jun-18 14:06 35.138895 -111.670743 220 7014ft 87kts
28-Jun-18 14:07 35.134269 -111.676325 298 7014ft 1kts
28-Jun-18 14:08 35.134382 -111.676501 312 7014ft 0kts
28-Jun-18 14:09 35.134452 -111.676594 312 7014ft 4kts
28-Jun-18 14:10 35.135958 -111.675810 33 7014ft 7kts
28-Jun-18 14:11 35.137600 -111.675126 227 7014ft 3kts
28-Jun-18 14:12 35.137387 -111.675367 224 7014ft 0kts
28-Jun-18 14:13 35.137387 -111.675367 224 7014ft 0kts
28-Jun-18 14:14 35.137387 -111.675367 224 7014ft 0kts
28-Jun-18 14:15 35.137387 -111.675367 224 7014ft 0kts
28-Jun-18 14:16 35.137387 -111.675367 224 7014ft 0kts
28-Jun-18 14:17 35.137387 -111.675367 224 7014ft 0kts
28-Jun-18 14:18 35.137387 -111.675367 224 7014ft 0kts
28-Jun-18 14:19 35.137387 -111.675367 224 7014ft 0kts
28-Jun-18 14:20 35.137387 -111.675367 224 7014ft 0kts
28-Jun-18 14:21 35.137387 -111.675367 224 7014ft 0kts

Navigation Log

Ident Type
Flight plan parsing failed, navigation log unavailable